Time;durP1;ratioP1;P1;durP2;ratioP2;P2;SDS_P1;SDS_P2;PMS_P1;PMS_P2;Temp;Humidity;BMP_temperature;BMP_pressure;BME280_temperature;BME280_humidity;BME280_pressure;Samples;Min_cycle;Max_cycle;Signal;HPM_P1;HPM_P2
2023/07/01 00:02:07;;;;;;;;;2.00;1.00;;;;;;;;5078421;27;45513;-86
2023/07/01 00:04:32;;;;;;;;;1.00;1.00;;;;;;;;5078743;27;45421;-87
2023/07/01 00:06:57;;;;;;;;;0.33;0.33;;;;;;;;5078669;27;45410;-86
2023/07/01 00:09:23;;;;;;;;;2.00;0.00;;;;;;;;5078298;27;45533;-87
2023/07/01 00:11:49;;;;;;;;;0.25;0.00;;;;;;;;5078598;27;45545;-87
2023/07/01 00:14:14;;;;;;;;;2.00;1.00;;;;;;;;5078403;27;45409;-87
2023/07/01 00:16:41;;;;;;;;;4.33;2.67;;;;;;;;5077953;27;45344;-89
2023/07/01 00:19:07;;;;;;;;;3.00;3.00;;;;;;;;5077035;28;45780;-87
2023/07/01 00:21:32;;;;;;;;;6.50;3.00;;;;;;;;5078290;27;45381;-87
2023/07/01 00:23:57;;;;;;;;;1.00;1.00;;;;;;;;5078284;27;45530;-87
2023/07/01 00:26:23;;;;;;;;;2.00;0.00;;;;;;;;5078332;27;46547;-87
2023/07/01 00:28:48;;;;;;;;;4.33;2.67;;;;;;;;5077914;27;45280;-87
2023/07/01 00:31:13;;;;;;;;;12.67;8.00;;;;;;;;5076886;28;45300;-87
2023/07/01 00:33:38;;;;;;;;;7.25;4.00;;;;;;;;5078242;27;45402;-87
2023/07/01 00:36:04;;;;;;;;;2.00;2.00;;;;;;;;5077676;28;47188;-87
2023/07/01 00:38:31;;;;;;;;;1.50;1.00;;;;;;;;5076802;28;45555;-88
2023/07/01 00:40:57;;;;;;;;;3.75;0.00;;;;;;;;5078070;27;45217;-87
2023/07/01 00:43:22;;;;;;;;;0.33;0.33;;;;;;;;5077801;27;45368;-87
2023/07/01 00:45:47;;;;;;;;;1.33;0.00;;;;;;;;5076383;28;47120;-87
2023/07/01 00:48:18;;;;;;;;;0.00;0.00;;;;;;;;5077745;27;45369;-87
2023/07/01 00:50:44;;;;;;;;;0.00;0.00;;;;;;;;5077797;27;45561;-87
2023/07/01 00:53:09;;;;;;;;;0.00;0.00;;;;;;;;5076824;28;45499;-87
2023/07/01 00:55:34;;;;;;;;;1.33;0.00;;;;;;;;5077651;27;46083;-87
2023/07/01 00:57:59;;;;;;;;;0.00;0.00;;;;;;;;5077479;27;45436;-88
2023/07/01 01:00:25;;;;;;;;;3.75;1.00;;;;;;;;5076552;28;45473;-86
2023/07/01 01:02:55;;;;;;;;;0.00;0.00;;;;;;;;5076538;28;45390;-86
2023/07/01 01:05:34;;;;;;;;;1.00;0.25;;;;;;;;5077458;27;46489;-90
2023/07/01 01:08:17;;;;;;;;;3.00;0.00;;;;;;;;5077847;27;45979;-86
2023/07/01 01:10:45;;;;;;;;;1.00;1.00;;;;;;;;5076509;27;45441;-85
2023/07/01 01:13:10;;;;;;;;;0.00;0.00;;;;;;;;5076872;28;45347;-88
2023/07/01 01:15:36;;;;;;;;;0.25;0.00;;;;;;;;5077322;27;46166;-86
2023/07/01 01:18:05;;;;;;;;;0.75;0.50;;;;;;;;5077481;27;45493;-86
2023/07/01 01:20:31;;;;;;;;;0.25;0.25;;;;;;;;5077368;27;45379;-86
2023/07/01 01:23:00;;;;;;;;;1.00;0.00;;;;;;;;5076891;27;45595;-86
2023/07/01 01:25:29;;;;;;;;;0.50;0.50;;;;;;;;5077066;27;46425;-86
2023/07/01 01:27:56;;;;;;;;;0.00;0.00;;;;;;;;5076931;27;45711;-86
2023/07/01 01:30:24;;;;;;;;;2.00;0.00;;;;;;;;5077283;27;45387;-86
2023/07/01 01:32:50;;;;;;;;;0.00;0.00;;;;;;;;5077282;27;45527;-87
2023/07/01 01:35:15;;;;;;;;;1.00;0.00;;;;;;;;5075690;28;47253;-87
2023/07/01 01:37:40;;;;;;;;;0.00;0.00;;;;;;;;5077252;27;45393;-86
2023/07/01 01:40:26;;;;;;;;;0.33;0.00;;;;;;;;5077223;27;45489;-87
2023/07/01 01:42:55;;;;;;;;;1.50;0.00;;;;;;;;5076379;27;45576;-86
2023/07/01 01:45:20;;;;;;;;;1.00;1.00;;;;;;;;5076689;28;45424;-86
2023/07/01 01:47:47;;;;;;;;;0.00;0.00;;;;;;;;5077037;27;45470;-85
2023/07/01 01:50:14;;;;;;;;;0.00;0.00;;;;;;;;5077059;27;45341;-86
2023/07/01 01:52:41;;;;;;;;;0.00;0.00;;;;;;;;5075638;28;45509;-86
2023/07/01 01:55:07;;;;;;;;;0.00;0.00;;;;;;;;5076747;27;46621;-86
2023/07/01 01:57:33;;;;;;;;;1.50;0.00;;;;;;;;5076215;27;45755;-86
2023/07/01 01:59:58;;;;;;;;;0.00;0.00;;;;;;;;5077147;28;45271;-86
2023/07/01 02:02:23;;;;;;;;;1.00;1.00;;;;;;;;5076923;27;45501;-86
2023/07/01 02:04:48;;;;;;;;;0.00;0.00;;;;;;;;5076500;27;45531;-88
2023/07/01 02:07:13;;;;;;;;;1.00;0.00;;;;;;;;5076643;27;45272;-87
2023/07/01 02:09:39;;;;;;;;;0.67;0.67;;;;;;;;5076645;27;45298;-87
2023/07/01 02:12:04;;;;;;;;;1.00;1.00;;;;;;;;5076282;27;45553;-87
2023/07/01 02:14:30;;;;;;;;;0.00;0.00;;;;;;;;5076227;27;47181;-87
2023/07/01 02:16:55;;;;;;;;;0.00;0.00;;;;;;;;5075221;28;45368;-87
2023/07/01 02:19:20;;;;;;;;;0.00;0.00;;;;;;;;5076745;28;45277;-88
2023/07/01 02:21:45;;;;;;;;;0.33;0.33;;;;;;;;5076116;27;45256;-87
2023/07/01 02:24:11;;;;;;;;;0.33;0.00;;;;;;;;5076122;27;45462;-87
2023/07/01 02:26:36;;;;;;;;;2.67;0.00;;;;;;;;5076070;27;45466;-87
2023/07/01 02:29:01;;;;;;;;;0.00;0.00;;;;;;;;5076377;27;45281;-86
2023/07/01 02:31:27;;;;;;;;;0.75;0.75;;;;;;;;5076436;27;45292;-87
2023/07/01 02:33:54;;;;;;;;;0.00;0.00;;;;;;;;5076247;27;46238;-86
2023/07/01 02:36:19;;;;;;;;;1.00;0.00;;;;;;;;5075194;28;45601;-86
2023/07/01 02:38:45;;;;;;;;;0.00;0.00;;;;;;;;5075245;28;45369;-86
2023/07/01 02:41:10;;;;;;;;;2.00;0.00;;;;;;;;5074563;28;45378;-86
2023/07/01 02:43:35;;;;;;;;;0.00;0.00;;;;;;;;5075997;27;46491;-87
2023/07/01 02:46:00;;;;;;;;;0.00;0.00;;;;;;;;5076202;27;45453;-89
2023/07/01 02:48:25;;;;;;;;;2.00;0.00;;;;;;;;5076602;27;45403;-86
2023/07/01 02:50:51;;;;;;;;;0.00;0.00;;;;;;;;5076167;27;45344;-87
2023/07/01 02:53:18;;;;;;;;;1.00;0.00;;;;;;;;5075940;28;45372;-88
2023/07/01 02:55:43;;;;;;;;;0.00;0.00;;;;;;;;5075344;27;45441;-90
2023/07/01 02:58:08;;;;;;;;;0.00;0.00;;;;;;;;5076169;27;45438;-88
2023/07/01 03:00:33;;;;;;;;;0.00;0.00;;;;;;;;5076186;27;45465;-87
2023/07/01 03:03:05;;;;;;;;;2.00;0.00;;;;;;;;5074533;28;47131;-92
2023/07/01 03:05:31;;;;;;;;;0.00;0.00;;;;;;;;5075937;27;45720;-87
2023/07/01 03:07:56;;;;;;;;;0.00;0.00;;;;;;;;5076033;27;45300;-87
2023/07/01 03:10:22;;;;;;;;;0.33;0.33;;;;;;;;5074391;27;45420;-87
2023/07/01 03:12:47;;;;;;;;;0.00;0.00;;;;;;;;5108761;27;48042;-87
2023/07/01 03:15:12;;;;;;;;;0.00;0.00;;;;;;;;5075725;27;45253;-88
2023/07/01 03:17:37;;;;;;;;;0.00;0.00;;;;;;;;5076167;27;45311;-87
2023/07/01 03:20:04;;;;;;;;;0.00;0.00;;;;;;;;5076420;27;45449;-87
2023/07/01 03:22:29;;;;;;;;;0.00;0.00;;;;;;;;5075520;27;46648;-89
2023/07/01 03:24:55;;;;;;;;;0.00;0.00;;;;;;;;5075617;28;45400;-87
2023/07/01 03:27:20;;;;;;;;;3.00;0.00;;;;;;;;5075690;27;45230;-87
2023/07/01 03:29:45;;;;;;;;;0.25;0.00;;;;;;;;5075650;28;45268;-87
2023/07/01 03:32:10;;;;;;;;;1.67;0.00;;;;;;;;5075748;28;46100;-88
2023/07/01 03:34:37;;;;;;;;;0.00;0.00;;;;;;;;5077621;27;45589;-87
2023/07/01 03:37:03;;;;;;;;;0.00;0.00;;;;;;;;5079532;27;45334;-87
2023/07/01 03:39:28;;;;;;;;;0.00;0.00;;;;;;;;5078831;27;45334;-87
2023/07/01 03:41:53;;;;;;;;;1.00;0.00;;;;;;;;5078798;27;46425;-87
2023/07/01 03:44:18;;;;;;;;;0.00;0.00;;;;;;;;5078936;27;45389;-88
2023/07/01 03:46:44;;;;;;;;;0.00;0.00;;;;;;;;5079046;27;45444;-88
2023/07/01 03:49:09;;;;;;;;;0.33;0.00;;;;;;;;5079045;27;45667;-88
2023/07/01 03:51:34;;;;;;;;;0.00;0.00;;;;;;;;5078496;27;45403;-87
2023/07/01 03:53:59;;;;;;;;;0.00;0.00;;;;;;;;5078403;28;45437;-86
2023/07/01 03:56:25;;;;;;;;;1.00;0.00;;;;;;;;5078731;27;45327;-88
2023/07/01 03:58:51;;;;;;;;;0.00;0.00;;;;;;;;5077485;28;45590;-87
2023/07/01 04:01:16;;;;;;;;;1.00;0.00;;;;;;;;5078433;27;46964;-87
2023/07/01 04:03:42;;;;;;;;;0.00;0.00;;;;;;;;5078898;27;45362;-88
2023/07/01 04:06:07;;;;;;;;;0.00;0.00;;;;;;;;5078565;27;45548;-87
2023/07/01 04:08:32;;;;;;;;;0.00;0.00;;;;;;;;5078321;27;45568;-87
2023/07/01 04:10:58;;;;;;;;;0.00;0.00;;;;;;;;5078603;27;46317;-88
2023/07/01 04:13:23;;;;;;;;;0.00;0.00;;;;;;;;5078403;28;45343;-87
2023/07/01 04:15:48;;;;;;;;;1.67;0.00;;;;;;;;5078602;27;45470;-87
2023/07/01 04:18:13;;;;;;;;;0.00;0.00;;;;;;;;5078564;27;45404;-88
2023/07/01 04:20:40;;;;;;;;;0.00;0.00;;;;;;;;5078307;27;45348;-87
2023/07/01 04:23:05;;;;;;;;;0.75;0.00;;;;;;;;5077822;27;45283;-89
2023/07/01 04:25:30;;;;;;;;;0.00;0.00;;;;;;;;5078492;27;45396;-87
2023/07/01 04:27:56;;;;;;;;;0.00;0.00;;;;;;;;5078780;27;45635;-89
2023/07/01 04:30:21;;;;;;;;;3.75;0.00;;;;;;;;5078086;27;46559;-87
2023/07/01 04:32:46;;;;;;;;;0.00;0.00;;;;;;;;5078268;27;45391;-87
2023/07/01 04:35:11;;;;;;;;;0.00;0.00;;;;;;;;5078260;27;45383;-87
2023/07/01 04:37:37;;;;;;;;;1.00;0.00;;;;;;;;5078278;27;45323;-87
2023/07/01 04:40:03;;;;;;;;;0.00;0.00;;;;;;;;5076824;28;47887;-86
2023/07/01 04:42:30;;;;;;;;;0.00;0.00;;;;;;;;5076923;28;46034;-87
2023/07/01 04:44:55;;;;;;;;;0.00;0.00;;;;;;;;5076640;28;45280;-88
2023/07/01 04:47:23;;;;;;;;;0.00;0.00;;;;;;;;5078087;28;45508;-88
2023/07/01 04:49:52;;;;;;;;;0.75;0.00;;;;;;;;5076343;28;46485;-88
2023/07/01 04:52:17;;;;;;;;;0.00;0.00;;;;;;;;5078007;27;45398;-88
2023/07/01 04:54:42;;;;;;;;;0.67;0.00;;;;;;;;5076966;28;45453;-88
2023/07/01 04:57:08;;;;;;;;;0.00;0.00;;;;;;;;5077803;27;45394;-87
2023/07/01 04:59:33;;;;;;;;;0.00;0.00;;;;;;;;5077630;27;46387;-87
2023/07/01 05:01:58;;;;;;;;;0.00;0.00;;;;;;;;5078032;27;45327;-90
2023/07/01 05:04:23;;;;;;;;;0.00;0.00;;;;;;;;5076345;28;45466;-87
2023/07/01 05:06:48;;;;;;;;;0.00;0.00;;;;;;;;5077975;27;45592;-87
2023/07/01 05:09:13;;;;;;;;;0.00;0.00;;;;;;;;5077642;28;46449;-88
2023/07/01 05:11:39;;;;;;;;;0.00;0.00;;;;;;;;5077444;27;45374;-87
2023/07/01 05:14:04;;;;;;;;;0.00;0.00;;;;;;;;5076500;28;45359;-88
2023/07/01 05:16:30;;;;;;;;;0.00;0.00;;;;;;;;5077869;27;45554;-87
2023/07/01 05:18:57;;;;;;;;;0.00;0.00;;;;;;;;5077208;27;46263;-88
2023/07/01 05:21:22;;;;;;;;;0.00;0.00;;;;;;;;5077581;27;45397;-88
2023/07/01 05:23:47;;;;;;;;;0.00;0.00;;;;;;;;5110612;27;45352;-88
2023/07/01 05:26:12;;;;;;;;;1.00;0.00;;;;;;;;5077671;27;45258;-88
2023/07/01 05:28:37;;;;;;;;;0.00;0.00;;;;;;;;5076247;28;47322;-88
2023/07/01 05:31:02;;;;;;;;;0.00;0.00;;;;;;;;5077315;27;45284;-87
2023/07/01 05:33:28;;;;;;;;;1.00;0.00;;;;;;;;5075961;28;45445;-87
2023/07/01 05:35:53;;;;;;;;;0.00;0.00;;;;;;;;5077603;27;45347;-87
2023/07/01 05:38:18;;;;;;;;;0.00;0.00;;;;;;;;5077390;27;45374;-87
2023/07/01 05:40:43;;;;;;;;;0.00;0.00;;;;;;;;5077282;27;45509;-87
2023/07/01 05:43:09;;;;;;;;;0.00;0.00;;;;;;;;5077573;27;45387;-87
2023/07/01 05:45:34;;;;;;;;;0.00;0.00;;;;;;;;5077182;27;45313;-87
2023/07/01 05:47:59;;;;;;;;;0.00;0.00;;;;;;;;5077012;28;46224;-86
2023/07/01 05:50:25;;;;;;;;;0.00;0.00;;;;;;;;5077126;27;45448;-87
2023/07/01 05:52:50;;;;;;;;;1.00;0.00;;;;;;;;5077347;27;45407;-87
2023/07/01 05:55:15;;;;;;;;;0.00;0.00;;;;;;;;5077318;27;45426;-87
2023/07/01 05:57:40;;;;;;;;;0.00;0.00;;;;;;;;5075848;27;46007;-87
2023/07/01 06:00:06;;;;;;;;;0.00;0.00;;;;;;;;5076758;28;45532;-88
2023/07/01 06:02:32;;;;;;;;;0.00;0.00;;;;;;;;5075474;28;45514;-87
2023/07/01 06:04:57;;;;;;;;;0.00;0.00;;;;;;;;5077183;27;45333;-87
2023/07/01 06:07:23;;;;;;;;;0.00;0.00;;;;;;;;5076864;27;45509;-87
2023/07/01 06:09:48;;;;;;;;;0.00;0.00;;;;;;;;5109915;27;45621;-88
2023/07/01 06:12:14;;;;;;;;;0.00;0.00;;;;;;;;5077185;27;45410;-88
2023/07/01 06:14:39;;;;;;;;;0.00;0.00;;;;;;;;5076963;27;45503;-88
2023/07/01 06:17:05;;;;;;;;;0.00;0.00;;;;;;;;5076233;27;45437;-87
2023/07/01 06:19:30;;;;;;;;;0.00;0.00;;;;;;;;5076703;27;45283;-87
2023/07/01 06:21:56;;;;;;;;;3.00;0.00;;;;;;;;5076886;27;45390;-88
2023/07/01 06:24:21;;;;;;;;;0.00;0.00;;;;;;;;5076675;27;45374;-87
2023/07/01 06:26:46;;;;;;;;;0.00;0.00;;;;;;;;5076323;27;45268;-87
2023/07/01 06:29:11;;;;;;;;;0.00;0.00;;;;;;;;5076593;27;45225;-88
2023/07/01 06:31:37;;;;;;;;;0.00;0.00;;;;;;;;5076474;27;45239;-88
2023/07/01 06:34:04;;;;;;;;;0.75;0.75;;;;;;;;5076630;27;45453;-87
2023/07/01 06:36:29;;;;;;;;;0.00;0.00;;;;;;;;5076530;27;45375;-88
2023/07/01 06:38:54;;;;;;;;;0.00;0.00;;;;;;;;5076646;27;45317;-88
2023/07/01 06:41:20;;;;;;;;;0.00;0.00;;;;;;;;5076590;27;45187;-87
2023/07/01 06:43:45;;;;;;;;;1.33;0.00;;;;;;;;5076567;27;45292;-87
2023/07/01 06:46:10;;;;;;;;;0.00;0.00;;;;;;;;5075889;28;45994;-87
2023/07/01 06:48:35;;;;;;;;;0.00;0.00;;;;;;;;5076297;27;45232;-87
2023/07/01 06:51:03;;;;;;;;;0.00;0.00;;;;;;;;5076367;27;45236;-87
2023/07/01 06:53:28;;;;;;;;;0.00;0.00;;;;;;;;5076203;27;45485;-87
2023/07/01 06:55:53;;;;;;;;;0.00;0.00;;;;;;;;5076080;27;46703;-87
2023/07/01 06:58:19;;;;;;;;;0.00;0.00;;;;;;;;5076157;27;45319;-87
2023/07/01 07:00:44;;;;;;;;;0.00;0.00;;;;;;;;5075935;27;45422;-87
2023/07/01 07:03:10;;;;;;;;;0.00;0.00;;;;;;;;5076201;27;45359;-87
2023/07/01 07:05:35;;;;;;;;;0.00;0.00;;;;;;;;5075891;28;46490;-87
2023/07/01 07:08:01;;;;;;;;;0.00;0.00;;;;;;;;5076007;27;45548;-87
2023/07/01 07:10:27;;;;;;;;;0.00;0.00;;;;;;;;5079728;27;45332;-94
2023/07/01 07:12:52;;;;;;;;;0.00;0.00;;;;;;;;5079677;27;45433;-86
2023/07/01 07:15:17;;;;;;;;;0.67;0.00;;;;;;;;5079027;27;46357;-87
2023/07/01 07:17:43;;;;;;;;;0.00;0.00;;;;;;;;5079572;27;45352;-88
2023/07/01 07:20:08;;;;;;;;;0.00;0.00;;;;;;;;5079612;27;45331;-87
2023/07/01 07:22:33;;;;;;;;;0.00;0.00;;;;;;;;5079493;27;45348;-87
2023/07/01 07:24:59;;;;;;;;;1.00;0.00;;;;;;;;5079198;27;45527;-87
2023/07/01 07:27:24;;;;;;;;;0.00;0.00;;;;;;;;5079285;27;45335;-87
2023/07/01 07:29:50;;;;;;;;;0.00;0.00;;;;;;;;5079105;27;45295;-87
2023/07/01 07:32:16;;;;;;;;;0.00;0.00;;;;;;;;5079556;27;45298;-87
2023/07/01 07:34:41;;;;;;;;;0.00;0.00;;;;;;;;5078873;27;46599;-87
2023/07/01 07:37:07;;;;;;;;;0.00;0.00;;;;;;;;5079179;27;45314;-87
2023/07/01 07:39:32;;;;;;;;;0.00;0.00;;;;;;;;5079191;27;45501;-87
2023/07/01 07:41:57;;;;;;;;;0.00;0.00;;;;;;;;5079324;27;45463;-87
2023/07/01 07:44:23;;;;;;;;;0.00;0.00;;;;;;;;5078710;28;45337;-86
2023/07/01 07:46:48;;;;;;;;;0.00;0.00;;;;;;;;5078957;27;45472;-87
2023/07/01 07:49:13;;;;;;;;;0.00;0.00;;;;;;;;5079220;27;45297;-88
2023/07/01 07:51:39;;;;;;;;;0.00;0.00;;;;;;;;5079059;27;45593;-87
2023/07/01 07:54:04;;;;;;;;;0.00;0.00;;;;;;;;5077428;28;48260;-87
2023/07/01 07:56:31;;;;;;;;;0.00;0.00;;;;;;;;5077392;28;45926;-86
2023/07/01 07:58:57;;;;;;;;;0.00;0.00;;;;;;;;5078598;27;45421;-87
2023/07/01 08:01:22;;;;;;;;;0.00;0.00;;;;;;;;5078798;27;45187;-88
2023/07/01 08:03:47;;;;;;;;;0.00;0.00;;;;;;;;5078611;27;45393;-86
2023/07/01 08:06:12;;;;;;;;;0.00;0.00;;;;;;;;5078575;27;45229;-86
2023/07/01 08:08:38;;;;;;;;;0.00;0.00;;;;;;;;5078831;27;45208;-86
2023/07/01 08:11:03;;;;;;;;;0.00;0.00;;;;;;;;5078781;27;45356;-86
2023/07/01 08:13:28;;;;;;;;;0.00;0.00;;;;;;;;5078034;27;46555;-86
2023/07/01 08:15:53;;;;;;;;;0.00;0.00;;;;;;;;5078594;28;45259;-86
2023/07/01 08:18:19;;;;;;;;;0.00;0.00;;;;;;;;5078732;27;45321;-86
2023/07/01 08:20:44;;;;;;;;;0.25;0.00;;;;;;;;5078142;27;45296;-87
2023/07/01 08:23:10;;;;;;;;;0.00;0.00;;;;;;;;5078488;27;45583;-86
2023/07/01 08:25:36;;;;;;;;;0.00;0.00;;;;;;;;5079025;27;45215;-89
2023/07/01 08:28:01;;;;;;;;;0.00;0.00;;;;;;;;5078528;27;45299;-88
2023/07/01 08:30:26;;;;;;;;;0.00;0.00;;;;;;;;5079464;27;45432;-90
2023/07/01 08:32:51;;;;;;;;;0.67;0.00;;;;;;;;5078756;27;45563;-89
2023/07/01 08:35:16;;;;;;;;;0.00;0.00;;;;;;;;5078979;27;45695;-89
2023/07/01 08:37:43;;;;;;;;;0.00;0.00;;;;;;;;5079317;27;45347;-90
2023/07/01 08:40:08;;;;;;;;;0.00;0.00;;;;;;;;5079393;27;45358;-92
2023/07/01 08:42:43;;;;;;;;;0.00;0.00;;;;;;;;5078901;27;46459;-92
2023/07/01 08:45:09;;;;;;;;;0.00;0.00;;;;;;;;5079267;27;45373;-92
2023/07/01 08:47:35;;;;;;;;;0.00;0.00;;;;;;;;5079184;27;45562;-92
2023/07/01 08:50:04;;;;;;;;;0.00;0.00;;;;;;;;5079369;27;45477;-93
2023/07/01 08:52:35;;;;;;;;;0.00;0.00;;;;;;;;5079175;27;46465;-93
2023/07/01 08:55:01;;;;;;;;;0.00;0.00;;;;;;;;5078991;27;45495;-92
2023/07/01 08:57:27;;;;;;;;;0.00;0.00;;;;;;;;5078638;27;45366;-92
2023/07/01 08:59:52;;;;;;;;;0.00;0.00;;;;;;;;5079204;27;45268;-92
2023/07/01 09:02:17;;;;;;;;;0.00;0.00;;;;;;;;5078610;27;47142;-90
2023/07/01 09:04:43;;;;;;;;;0.00;0.00;;;;;;;;5078644;27;45382;-93
2023/07/01 09:07:10;;;;;;;;;0.00;0.00;;;;;;;;5077840;28;45425;-91
2023/07/01 09:09:37;;;;;;;;;0.00;0.00;;;;;;;;5078945;27;45518;-92
2023/07/01 09:12:02;;;;;;;;;0.00;0.00;;;;;;;;5078234;27;46667;-91
2023/07/01 09:14:47;;;;;;;;;0.00;0.00;;;;;;;;5077294;28;45631;-90
2023/07/01 09:17:25;;;;;;;;;0.00;0.00;;;;;;;;5078893;28;45378;-89
2023/07/01 09:19:51;;;;;;;;;0.00;0.00;;;;;;;;5078155;27;45387;-89
2023/07/01 09:22:16;;;;;;;;;0.00;0.00;;;;;;;;5076757;28;47031;-89
2023/07/01 09:24:41;;;;;;;;;0.00;0.00;;;;;;;;5076775;28;45367;-88
2023/07/01 09:27:08;;;;;;;;;0.00;0.00;;;;;;;;5076347;28;45389;-88
2023/07/01 09:29:35;;;;;;;;;0.00;0.00;;;;;;;;5077868;27;45457;-88
2023/07/01 09:32:00;;;;;;;;;0.00;0.00;;;;;;;;5076946;27;46217;-89
2023/07/01 09:34:26;;;;;;;;;0.00;0.00;;;;;;;;5077332;28;45349;-90
2023/07/01 09:36:51;;;;;;;;;0.00;0.00;;;;;;;;5077252;28;45403;-89
2023/07/01 09:39:29;;;;;;;;;0.00;0.00;;;;;;;;5076739;28;45225;-90
2023/07/01 09:42:02;;;;;;;;;0.00;0.00;;;;;;;;5077297;27;45662;-89
2023/07/01 09:44:28;;;;;;;;;1.00;0.00;;;;;;;;5077725;27;45410;-92
2023/07/01 09:46:53;;;;;;;;;0.33;0.00;;;;;;;;5078191;27;45282;-89
2023/07/01 09:49:18;;;;;;;;;0.00;0.00;;;;;;;;5076872;28;46075;-90
2023/07/01 09:51:45;;;;;;;;;0.00;0.00;;;;;;;;5076314;28;47056;-89
2023/07/01 09:54:26;;;;;;;;;0.00;0.00;;;;;;;;5077325;27;45729;-89
2023/07/01 09:56:52;;;;;;;;;0.00;0.00;;;;;;;;5077253;27;45305;-89
2023/07/01 09:59:18;;;;;;;;;0.00;0.00;;;;;;;;5076538;28;45526;-88
2023/07/01 10:01:46;;;;;;;;;0.00;0.00;;;;;;;;5077056;27;46107;-88
2023/07/01 10:04:11;;;;;;;;;0.00;0.00;;;;;;;;5077201;27;45353;-88
2023/07/01 10:06:36;;;;;;;;;0.00;0.00;;;;;;;;5077018;27;45520;-89
2023/07/01 10:09:02;;;;;;;;;0.00;0.00;;;;;;;;5077115;27;45432;-90
2023/07/01 10:11:28;;;;;;;;;0.00;0.00;;;;;;;;5076840;27;45436;-89
2023/07/01 10:13:55;;;;;;;;;0.00;0.00;;;;;;;;5076843;27;45399;-87
2023/07/01 10:16:20;;;;;;;;;0.00;0.00;;;;;;;;5078097;27;45284;-89
2023/07/01 10:18:46;;;;;;;;;0.00;0.00;;;;;;;;5078636;27;45387;-88
2023/07/01 10:21:23;;;;;;;;;0.00;0.00;;;;;;;;5077596;27;45704;-89
2023/07/01 10:23:49;;;;;;;;;0.00;0.00;;;;;;;;5075807;28;45731;-89
2023/07/01 10:26:34;;;;;;;;;0.00;0.00;;;;;;;;5076858;27;45402;-87
2023/07/01 10:28:59;;;;;;;;;0.00;0.00;;;;;;;;5076885;28;45469;-88
2023/07/01 10:31:24;;;;;;;;;0.00;0.00;;;;;;;;5076878;27;46538;-90
2023/07/01 10:33:50;;;;;;;;;0.25;0.00;;;;;;;;5076792;27;45351;-91
2023/07/01 10:36:18;;;;;;;;;0.00;0.00;;;;;;;;5075595;28;45363;-88
2023/07/01 10:38:44;;;;;;;;;0.00;0.00;;;;;;;;5076561;27;45299;-88
2023/07/01 10:41:11;;;;;;;;;0.00;0.00;;;;;;;;5076709;27;45338;-95
2023/07/01 10:43:37;;;;;;;;;0.00;0.00;;;;;;;;5075184;28;45692;-89
2023/07/01 10:46:03;;;;;;;;;0.00;0.00;;;;;;;;5076651;28;45448;-88
2023/07/01 10:48:28;;;;;;;;;0.00;0.00;;;;;;;;5076961;27;45385;-88
2023/07/01 10:51:04;;;;;;;;;0.00;0.00;;;;;;;;5077610;27;46547;-88
2023/07/01 10:53:30;;;;;;;;;0.00;0.00;;;;;;;;5076031;27;45356;-88
2023/07/01 10:56:13;;;;;;;;;0.00;0.00;;;;;;;;5076311;27;45556;-88
2023/07/01 10:58:39;;;;;;;;;0.00;0.00;;;;;;;;5076111;28;45585;-93
2023/07/01 11:01:05;;;;;;;;;0.00;0.00;;;;;;;;5076032;27;46526;-87
2023/07/01 11:03:33;;;;;;;;;0.75;0.00;;;;;;;;5076575;27;45383;-86
2023/07/01 11:06:03;;;;;;;;;0.25;0.00;;;;;;;;5076599;27;45352;-87
2023/07/01 11:08:29;;;;;;;;;0.00;0.00;;;;;;;;5076446;27;45491;-86
2023/07/01 11:10:55;;;;;;;;;0.00;0.00;;;;;;;;5076243;27;45449;-87
2023/07/01 11:13:21;;;;;;;;;0.00;0.00;;;;;;;;5075916;27;45402;-86
2023/07/01 11:16:02;;;;;;;;;1.00;0.00;;;;;;;;5076555;28;45301;-86
2023/07/01 11:18:49;;;;;;;;;0.00;0.00;;;;;;;;5076151;27;45616;-86
2023/07/01 11:21:22;;;;;;;;;1.00;0.00;;;;;;;;5075693;27;45568;-86
2023/07/01 11:23:56;;;;;;;;;0.00;0.00;;;;;;;;5075855;28;45390;-88
2023/07/01 11:26:23;;;;;;;;;0.75;0.00;;;;;;;;5076131;27;45318;-87
2023/07/01 11:28:48;;;;;;;;;0.00;0.00;;;;;;;;5075924;27;45373;-86
2023/07/01 11:31:18;;;;;;;;;0.00;0.00;;;;;;;;5075431;27;45489;-86
2023/07/01 11:33:47;;;;;;;;;0.00;0.00;;;;;;;;5075833;27;45356;-85
2023/07/01 11:36:16;;;;;;;;;0.00;0.00;;;;;;;;5075420;27;45417;-86
2023/07/01 11:38:43;;;;;;;;;0.00;0.00;;;;;;;;5074528;28;45613;-86
2023/07/01 11:41:11;;;;;;;;;1.00;0.00;;;;;;;;5075537;27;46544;-86
2023/07/01 11:43:38;;;;;;;;;0.00;0.00;;;;;;;;5075452;27;45233;-85
2023/07/01 11:46:03;;;;;;;;;0.00;0.00;;;;;;;;5075673;27;45385;-86
2023/07/01 11:48:30;;;;;;;;;0.67;0.00;;;;;;;;5074331;28;45523;-85
2023/07/01 11:50:55;;;;;;;;;0.00;0.00;;;;;;;;5075057;27;45632;-85
2023/07/01 11:53:21;;;;;;;;;0.00;0.00;;;;;;;;5075584;27;45420;-85
2023/07/01 11:55:46;;;;;;;;;0.33;0.00;;;;;;;;5077375;27;45483;-86
2023/07/01 11:58:27;;;;;;;;;1.00;0.00;;;;;;;;5079197;27;45449;-85
2023/07/01 12:00:52;;;;;;;;;0.00;0.00;;;;;;;;5078692;27;45456;-86
2023/07/01 12:03:17;;;;;;;;;0.00;0.00;;;;;;;;5079016;27;45398;-86
2023/07/01 12:05:46;;;;;;;;;0.00;0.00;;;;;;;;5077688;28;45414;-85
2023/07/01 12:08:12;;;;;;;;;0.00;0.00;;;;;;;;5078992;27;45640;-85
2023/07/01 12:10:38;;;;;;;;;0.00;0.00;;;;;;;;5078806;27;46702;-85
2023/07/01 12:13:03;;;;;;;;;1.00;0.00;;;;;;;;5078640;27;45811;-85
2023/07/01 12:15:29;;;;;;;;;0.00;0.00;;;;;;;;5078733;27;45320;-86
2023/07/01 12:18:14;;;;;;;;;0.75;0.75;;;;;;;;5078685;27;45306;-86
2023/07/01 12:20:40;;;;;;;;;0.50;0.00;;;;;;;;5077924;28;46589;-86
2023/07/01 12:23:05;;;;;;;;;2.00;0.00;;;;;;;;5078667;27;45656;-84
2023/07/01 12:25:31;;;;;;;;;0.00;0.00;;;;;;;;5078596;28;45410;-85
2023/07/01 12:27:56;;;;;;;;;0.00;0.00;;;;;;;;5078361;27;45216;-85
2023/07/01 12:30:21;;;;;;;;;0.00;0.00;;;;;;;;5078263;27;45448;-85
2023/07/01 12:32:48;;;;;;;;;0.00;0.00;;;;;;;;5078342;27;45454;-85
2023/07/01 12:35:16;;;;;;;;;0.00;0.00;;;;;;;;5078163;27;45442;-85
2023/07/01 12:37:42;;;;;;;;;0.00;0.00;;;;;;;;5078323;27;45552;-86
2023/07/01 12:40:08;;;;;;;;;0.50;0.00;;;;;;;;5078149;27;45781;-85
2023/07/01 12:42:33;;;;;;;;;0.00;0.00;;;;;;;;5078244;27;45362;-85
2023/07/01 12:44:58;;;;;;;;;3.00;0.00;;;;;;;;5078242;27;45346;-86
2023/07/01 12:47:24;;;;;;;;;1.00;0.00;;;;;;;;5078257;27;45300;-87
2023/07/01 12:49:49;;;;;;;;;0.00;0.00;;;;;;;;5077499;27;46398;-85
2023/07/01 12:52:14;;;;;;;;;0.00;0.00;;;;;;;;5078258;27;45295;-86
2023/07/01 12:54:39;;;;;;;;;1.00;1.00;;;;;;;;5078244;27;45251;-85
2023/07/01 12:57:05;;;;;;;;;1.33;0.00;;;;;;;;5078098;27;45250;-85
2023/07/01 12:59:30;;;;;;;;;2.00;0.00;;;;;;;;5077667;27;46196;-85
2023/07/01 13:01:55;;;;;;;;;1.00;1.00;;;;;;;;5077872;27;45420;-84
2023/07/01 13:04:20;;;;;;;;;0.00;0.00;;;;;;;;5076193;28;45292;-87
2023/07/01 13:06:47;;;;;;;;;0.00;0.00;;;;;;;;5077846;27;45206;-85
2023/07/01 13:09:12;;;;;;;;;3.50;1.00;;;;;;;;5077554;27;45426;-85
2023/07/01 13:11:38;;;;;;;;;0.25;0.00;;;;;;;;5077631;27;45444;-85
2023/07/01 13:14:10;;;;;;;;;1.00;0.00;;;;;;;;5077729;27;45585;-84
2023/07/01 13:16:36;;;;;;;;;1.75;0.25;;;;;;;;5077796;27;45269;-85
2023/07/01 13:19:05;;;;;;;;;2.00;0.50;;;;;;;;5077363;27;46288;-85
2023/07/01 13:21:38;;;;;;;;;2.25;1.00;;;;;;;;5077424;27;45267;-85
2023/07/01 13:24:04;;;;;;;;;0.00;0.00;;;;;;;;5077684;27;45795;-85
2023/07/01 13:26:30;;;;;;;;;0.50;0.00;;;;;;;;5077379;27;45373;-84
2023/07/01 13:28:57;;;;;;;;;0.00;0.00;;;;;;;;5077695;27;45506;-84
2023/07/01 13:31:23;;;;;;;;;2.00;0.00;;;;;;;;5077599;27;45433;-85
2023/07/01 13:33:48;;;;;;;;;1.00;0.00;;;;;;;;5077143;27;45453;-85
2023/07/01 13:36:16;;;;;;;;;1.25;0.00;;;;;;;;5077716;27;45334;-85
2023/07/01 13:38:41;;;;;;;;;0.00;0.00;;;;;;;;5077147;27;46662;-85
2023/07/01 13:41:07;;;;;;;;;1.33;0.00;;;;;;;;5077317;27;45382;-85
2023/07/01 13:43:34;;;;;;;;;3.00;0.00;;;;;;;;5110401;27;45448;-85
2023/07/01 13:45:59;;;;;;;;;2.00;0.00;;;;;;;;5077155;28;45486;-85
2023/07/01 13:48:27;;;;;;;;;0.00;0.00;;;;;;;;5077166;27;45446;-85
2023/07/01 13:50:52;;;;;;;;;0.25;0.00;;;;;;;;5077808;27;45647;-86
2023/07/01 13:53:19;;;;;;;;;0.00;0.00;;;;;;;;5077278;28;45200;-86
2023/07/01 13:55:45;;;;;;;;;0.25;0.00;;;;;;;;5076859;27;45460;-85
2023/07/01 13:58:10;;;;;;;;;1.00;0.00;;;;;;;;5076988;28;45554;-86
2023/07/01 14:00:38;;;;;;;;;0.00;0.00;;;;;;;;5076836;27;45402;-86
2023/07/01 14:03:05;;;;;;;;;0.00;0.00;;;;;;;;5076697;27;45366;-84
2023/07/01 14:05:34;;;;;;;;;0.00;0.00;;;;;;;;5076760;27;45656;-85
2023/07/01 14:08:00;;;;;;;;;0.00;0.00;;;;;;;;5076888;27;45486;-85
2023/07/01 14:10:29;;;;;;;;;0.00;0.00;;;;;;;;5076640;28;45359;-85
2023/07/01 14:12:57;;;;;;;;;0.00;0.00;;;;;;;;5076972;27;45456;-86
2023/07/01 14:15:32;;;;;;;;;0.25;0.00;;;;;;;;5076519;27;45497;-90
2023/07/01 14:17:57;;;;;;;;;0.00;0.00;;;;;;;;5075896;27;46454;-85
2023/07/01 14:20:23;;;;;;;;;1.00;0.00;;;;;;;;5076753;27;45529;-85
2023/07/01 14:22:55;;;;;;;;;0.25;0.00;;;;;;;;5076675;27;45560;-85
2023/07/01 14:25:25;;;;;;;;;0.00;0.00;;;;;;;;5076438;27;45385;-84
2023/07/01 14:27:50;;;;;;;;;0.00;0.00;;;;;;;;5076609;27;45414;-85
2023/07/01 14:30:35;;;;;;;;;0.00;0.00;;;;;;;;5076213;27;45326;-86
2023/07/01 14:33:00;;;;;;;;;0.00;0.00;;;;;;;;5076582;27;45248;-84
2023/07/01 14:35:25;;;;;;;;;0.00;0.00;;;;;;;;5076711;27;45477;-87
2023/07/01 14:37:51;;;;;;;;;0.00;0.00;;;;;;;;5076257;28;46501;-86
2023/07/01 14:40:16;;;;;;;;;0.00;0.00;;;;;;;;5076355;28;45350;-86